ADDS METAR Data INFO
IDs: Format: Raw Decoded Include TAF

Data at: 0352 UTC 18 Oct 2017

KADC 180334Z AUTO 19004KT 10SM CLR 11/04 A2979 RMK AO2
KADC 180315Z AUTO 20003KT 10SM CLR 12/04 A2979 RMK AO2
KADC 180252Z AUTO 19004KT 10SM CLR 12/05 A2979 RMK AO2
KADC 180234Z AUTO 19005KT 10SM CLR 12/05 A2980 RMK AO2
KADC 180215Z AUTO 20005KT 10SM CLR 13/05 A2980 RMK AO2
KADC 180152Z AUTO 18006KT 10SM CLR 12/05 A2980 RMK AO2
KADC 180134Z AUTO 18006KT 10SM CLR 13/05 A2981 RMK AO2
KADC 180114Z AUTO 18006KT 10SM CLR 13/06 A2981 RMK AO2
KADC 180052Z AUTO 17007KT 10SM CLR 14/06 A2982 RMK AO2
KADC 180035Z AUTO 17007KT 10SM CLR 13/05 A2982 RMK AO2
KADC 180014Z AUTO 17005KT 10SM CLR 13/05 A2982 RMK AO2
KADC 172352Z AUTO 17005KT 10SM CLR 14/06 A2982 RMK AO2
KADC 172335Z AUTO 17005KT 10SM CLR 15/06 A2982 RMK AO2
KADC 172314Z AUTO 17006KT 10SM CLR 17/06 A2983 RMK AO2
KADC 172252Z AUTO 18007KT 10SM CLR 19/06 A2983 RMK AO2
KADC 172234Z AUTO 19009KT 10SM CLR 20/05 A2984 RMK AO2
KADC 172215Z AUTO 19009KT 10SM CLR 21/06 A2984 RMK AO2
KADC 172152Z AUTO 18009KT 10SM CLR 21/06 A2985 RMK AO2
KADC 172134Z AUTO 20010KT 10SM CLR 21/05 A2986 RMK AO2
KADC 172114Z AUTO 21007KT 10SM CLR 21/05 A2987 RMK AO2
KADC 172052Z AUTO 21008KT 10SM CLR 21/04 A2987 RMK AO2
KADC 172034Z AUTO 20008KT 10SM CLR 22/04 A2988 RMK AO2
KADC 172014Z AUTO 19010KT 10SM CLR 21/04 A2988 RMK AO2
KADC 171953Z AUTO 20008KT 10SM CLR 21/04 A2989 RMK AO2
KADC 171934Z AUTO 21009G14KT 10SM CLR 20/04 A2990 RMK AO2
KADC 171914Z AUTO 22010KT 10SM CLR 21/04 A2990 RMK AO2
KADC 171853Z AUTO 22008KT 10SM CLR 21/04 A2991 RMK AO2
KADC 171834Z AUTO 20008KT 10SM CLR 20/04 A2992 RMK AO2
KADC 171814Z AUTO 21008KT 10SM CLR 19/04 A2993 RMK AO2
KADC 171752Z AUTO 21007KT 10SM CLR 19/04 A2993 RMK AO2
KADC 171735Z AUTO 20009KT 10SM CLR 19/04 A2994 RMK AO2
KADC 171714Z AUTO 21009KT 10SM CLR 18/04 A2994 RMK AO2
KADC 171652Z AUTO 18010G15KT 10SM CLR 18/05 A2994 RMK AO2
KADC 171635Z AUTO 18011KT 10SM CLR 18/05 A2995 RMK AO2
KADC 171614Z AUTO 18008KT 10SM CLR 17/05 A2997 RMK AO2
KADC 171552Z AUTO 18006KT 10SM CLR 16/06 A2997 RMK AO2
KADC 171534Z AUTO 18004KT 10SM CLR 15/06 A2997 RMK AO2
KADC 171515Z AUTO 00000KT 10SM CLR 13/06 A2997 RMK AO2
KADC 171453Z AUTO 20004KT 10SM CLR 11/06 A2996 RMK AO2
KADC 171434Z AUTO 20003KT 10SM CLR 08/06 A2997 RMK AO2
KADC 171414Z AUTO 00000KT 10SM CLR 06/06 A2997 RMK AO2
KADC 171353Z AUTO 00000KT 10SM CLR 04/04 A2998 RMK AO2
KADC 171334Z AUTO 00000KT 10SM CLR 02/02 A2998 RMK AO2
KADC 171315Z AUTO 00000KT 10SM CLR 01/01 A2998 RMK AO2
KADC 171252Z AUTO 00000KT 10SM CLR 02/02 A2997 RMK AO2
KADC 171235Z AUTO 00000KT 10SM CLR 02/02 A2997 RMK AO2
KADC 171214Z AUTO 00000KT 10SM CLR 02/02 A2997 RMK AO2
KADC 171152Z AUTO 00000KT 10SM CLR 02/02 A2997 RMK AO2
KADC 171134Z AUTO 00000KT 10SM CLR 02/02 A2996 RMK AO2
KADC 171114Z AUTO 00000KT 10SM CLR 01/01 A2996 RMK AO2
KADC 171053Z AUTO 00000KT 10SM CLR 02/02 A2996 RMK AO2
KADC 171034Z AUTO 00000KT 10SM CLR 02/02 A2996 RMK AO2
KADC 171014Z AUTO 00000KT 10SM CLR 02/02 A2996 RMK AO2
KADC 170953Z AUTO 00000KT 10SM CLR 03/03 A2996 RMK AO2
KADC 170934Z AUTO 00000KT 10SM CLR 02/02 A2995 RMK AO2
KADC 170914Z AUTO 00000KT 10SM CLR 03/03 A2995 RMK AO2
KADC 170852Z AUTO 00000KT 10SM CLR 04/04 A2994 RMK AO2
KADC 170835Z AUTO 00000KT 10SM CLR 03/03 A2994 RMK AO2
KADC 170814Z AUTO 00000KT 10SM CLR 04/03 A2995 RMK AO2
KADC 170752Z AUTO 25003KT 10SM CLR 04/03 A2994 RMK AO2
KADC 170734Z AUTO 00000KT 10SM CLR 05/03 A2994 RMK AO2
KADC 170715Z AUTO 00000KT 10SM CLR 06/04 A2994 RMK AO2
KADC 170652Z AUTO 00000KT 10SM CLR 06/03 A2993 RMK AO2
KADC 170634Z AUTO 00000KT 10SM CLR 07/04 A2994 RMK AO2
KADC 170615Z AUTO 00000KT 10SM CLR 07/04 A2993 RMK AO2
KADC 170552Z AUTO 24003KT 10SM CLR 08/04 A2993 RMK AO2
KADC 170535Z AUTO 25003KT 10SM CLR 08/04 A2993 RMK AO2
KADC 170514Z AUTO 27004KT 10SM CLR 09/04 A2993 RMK AO2
KADC 170453Z AUTO 27004KT 10SM CLR 09/04 A2992 RMK AO2
KADC 170434Z AUTO 26004KT 10SM CLR 09/04 A2992 RMK AO2
KADC 170414Z AUTO 25005KT 10SM CLR 09/04 A2992 RMK AO2
KADC 170353Z AUTO 25005KT 10SM CLR 11/04 A2992 RMK AO2
KADC 170334Z AUTO 24006KT 10SM CLR 11/04 A2992 RMK AO2
KADC 170314Z AUTO 25004KT 10SM CLR 11/04 A2992 RMK AO2
KADC 170253Z AUTO 23006KT 10SM CLR 11/04 A2991 RMK AO2
KADC 170234Z AUTO 24006KT 10SM CLR 11/04 A2991 RMK AO2
KADC 170214Z AUTO 23005KT 10SM CLR 11/04 A2991 RMK AO2
KADC 170152Z AUTO 23005KT 10SM CLR 11/04 A2990 RMK AO2
KADC 170135Z AUTO 23005KT 10SM CLR 11/04 A2990 RMK AO2
KADC 170114Z AUTO 24004KT 10SM CLR 11/03 A2991 RMK AO2
KADC 170052Z AUTO 22003KT 10SM CLR 11/04 A2991 RMK AO2
KADC 170035Z AUTO 22003KT 10SM CLR 12/04 A2991 RMK AO2
KADC 170014Z AUTO 22004KT 10SM CLR 13/04 A2990 RMK AO2
KADC 162352Z AUTO 21005KT 10SM CLR 14/04 A2990 RMK AO2
KADC 162334Z AUTO 20005KT 10SM CLR 14/04 A2990 RMK AO2
KADC 162315Z AUTO 21006KT 10SM CLR 16/04 A2990 RMK AO2
KADC 162252Z AUTO 21007KT 10SM CLR 17/04 A2990 RMK AO2
KADC 162234Z AUTO 21008KT 10SM CLR 18/04 A2989 RMK AO2
KADC 162215Z AUTO 21007G17KT 10SM CLR 18/04 A2990 RMK AO2
KADC 162152Z AUTO 21010KT 10SM CLR 18/04 A2991 RMK AO2
KADC 162135Z AUTO 21010KT 10SM CLR 18/04 A2992 RMK AO2
KADC 162114Z AUTO 20014G19KT 10SM CLR 18/04 A2992 RMK AO2
KADC 162053Z AUTO 20011G20KT 10SM CLR 18/04 A2993 RMK AO2
KADC 162034Z AUTO 21011G18KT 10SM CLR 17/04 A2994 RMK AO2
KADC 162014Z AUTO 20015G21KT 10SM CLR 17/04 A2994 RMK AO2
KADC 161953Z AUTO 20015G19KT 10SM CLR 17/04 A2996 RMK AO2
KADC 161934Z AUTO 20015G19KT 10SM CLR 17/03 A2997 RMK AO2
KADC 161914Z AUTO 22015G21KT 10SM CLR 17/03 A2998 RMK AO2
KADC 161853Z AUTO 22013KT 10SM CLR 17/03 A2999 RMK AO2
KADC 161834Z AUTO 21012G19KT 10SM CLR 16/03 A3001 RMK AO2
KADC 161814Z AUTO 20012G16KT 10SM CLR 16/03 A3002 RMK AO2
KADC 161752Z AUTO 19013G17KT 10SM CLR 15/02 A3004 RMK AO2
KADC 161735Z AUTO 21011G17KT 10SM CLR 14/02 A3005 RMK AO2
KADC 161714Z AUTO 21010G17KT 10SM CLR 14/02 A3006 RMK AO2
KADC 161652Z AUTO 20015G21KT 10SM CLR 13/02 A3006 RMK AO2
KADC 161635Z AUTO 20014G17KT 10SM CLR 13/02 A3007 RMK AO2
KADC 161614Z AUTO 20010KT 10SM CLR 12/02 A3008 RMK AO2